sensor_id;sensor_type;location;lat;lon;timestamp;pressure;altitude;pressure_sealevel;temperature;humidity
6567;BME280;3317;43.994;22.878;2022-08-03T00:01:10;100752.88;;;28.07;36.28
6567;BME280;3317;43.994;22.878;2022-08-03T00:03:37;100819.06;;;28.43;36.52
6567;BME280;3317;43.994;22.878;2022-08-03T00:06:05;100813.47;;;28.38;36.51
6567;BME280;3317;43.994;22.878;2022-08-03T00:08:31;100818.50;;;28.41;36.05
6567;BME280;3317;43.994;22.878;2022-08-03T00:10:59;100797.84;;;28.27;36.63
6567;BME280;3317;43.994;22.878;2022-08-03T00:13:26;100812.38;;;28.39;36.42
6567;BME280;3317;43.994;22.878;2022-08-03T00:15:54;100806.50;;;28.35;36.62
6567;BME280;3317;43.994;22.878;2022-08-03T00:18:21;100817.34;;;28.32;36.36
6567;BME280;3317;43.994;22.878;2022-08-03T00:20:48;100819.00;;;28.28;36.60
6567;BME280;3317;43.994;22.878;2022-08-03T00:23:15;100819.25;;;28.21;36.88
6567;BME280;3317;43.994;22.878;2022-08-03T00:25:43;100821.75;;;28.22;36.75
6567;BME280;3317;43.994;22.878;2022-08-03T00:28:10;100826.25;;;28.23;36.61
6567;BME280;3317;43.994;22.878;2022-08-03T00:30:37;100828.44;;;28.21;36.56
6567;BME280;3317;43.994;22.878;2022-08-03T00:33:08;100829.25;;;28.17;36.83
6567;BME280;3317;43.994;22.878;2022-08-03T00:35:36;100820.28;;;28.15;36.89
6567;BME280;3317;43.994;22.878;2022-08-03T00:38:03;100824.47;;;28.12;37.03
6567;BME280;3317;43.994;22.878;2022-08-03T00:40:31;100816.38;;;28.05;36.96
6567;BME280;3317;43.994;22.878;2022-08-03T00:43:01;100831.41;;;28.04;36.87
6567;BME280;3317;43.994;22.878;2022-08-03T00:45:31;100835.00;;;28.00;37.05
6567;BME280;3317;43.994;22.878;2022-08-03T00:47:59;100841.06;;;27.96;37.12
6567;BME280;3317;43.994;22.878;2022-08-03T00:50:31;100832.69;;;27.91;37.55
6567;BME280;3317;43.994;22.878;2022-08-03T00:53:00;100848.03;;;27.94;37.44
6567;BME280;3317;43.994;22.878;2022-08-03T00:55:27;100844.94;;;27.90;37.39
6567;BME280;3317;43.994;22.878;2022-08-03T00:57:55;100846.31;;;27.88;37.68
6567;BME280;3317;43.994;22.878;2022-08-03T01:00:23;100847.41;;;27.87;37.47
6567;BME280;3317;43.994;22.878;2022-08-03T01:02:52;100848.81;;;27.84;37.42
6567;BME280;3317;43.994;22.878;2022-08-03T01:05:19;100846.28;;;27.82;37.12
6567;BME280;3317;43.994;22.878;2022-08-03T01:07:59;100835.06;;;27.72;37.30
6567;BME280;3317;43.994;22.878;2022-08-03T01:10:35;100838.72;;;27.73;37.55
6567;BME280;3317;43.994;22.878;2022-08-03T01:13:13;100845.38;;;27.72;37.18
6567;BME280;3317;43.994;22.878;2022-08-03T01:15:47;100843.66;;;27.65;37.62
6567;BME280;3317;43.994;22.878;2022-08-03T01:18:21;100845.03;;;27.63;37.85
6567;BME280;3317;43.994;22.878;2022-08-03T01:20:54;100845.56;;;27.60;37.82
6567;BME280;3317;43.994;22.878;2022-08-03T01:23:49;100839.13;;;27.54;38.17
6567;BME280;3317;43.994;22.878;2022-08-03T01:26:41;100845.19;;;27.51;38.01
6567;BME280;3317;43.994;22.878;2022-08-03T01:32:13;100840.41;;;27.46;38.21
6567;BME280;3317;43.994;22.878;2022-08-03T01:34:46;100824.47;;;27.36;38.16
6567;BME280;3317;43.994;22.878;2022-08-03T01:37:15;100833.97;;;27.40;38.39
6567;BME280;3317;43.994;22.878;2022-08-03T01:39:46;100789.78;;;27.11;38.50
6567;BME280;3317;43.994;22.878;2022-08-03T01:42:16;100830.03;;;27.36;38.56
6567;BME280;3317;43.994;22.878;2022-08-03T01:44:45;100836.97;;;27.34;38.41
6567;BME280;3317;43.994;22.878;2022-08-03T01:47:15;100827.41;;;27.24;38.80
6567;BME280;3317;43.994;22.878;2022-08-03T01:49:48;100839.50;;;27.35;38.61
6567;BME280;3317;43.994;22.878;2022-08-03T01:52:18;100822.97;;;27.23;38.50
6567;BME280;3317;43.994;22.878;2022-08-03T01:54:48;100838.88;;;27.28;38.67
6567;BME280;3317;43.994;22.878;2022-08-03T01:57:17;100841.97;;;27.32;38.63
6567;BME280;3317;43.994;22.878;2022-08-03T01:59:47;100848.31;;;27.27;38.69
6567;BME280;3317;43.994;22.878;2022-08-03T02:02:17;100849.66;;;27.24;39.03
6567;BME280;3317;43.994;22.878;2022-08-03T02:04:46;100813.34;;;27.04;39.07
6567;BME280;3317;43.994;22.878;2022-08-03T02:07:15;100830.38;;;27.12;39.13
6567;BME280;3317;43.994;22.878;2022-08-03T02:09:44;100839.88;;;27.17;39.07
6567;BME280;3317;43.994;22.878;2022-08-03T02:12:13;100839.84;;;27.11;39.00
6567;BME280;3317;43.994;22.878;2022-08-03T02:14:42;100838.16;;;27.10;39.29
6567;BME280;3317;43.994;22.878;2022-08-03T02:17:10;100840.38;;;27.08;39.25
6567;BME280;3317;43.994;22.878;2022-08-03T02:19:40;100836.16;;;27.06;39.32
6567;BME280;3317;43.994;22.878;2022-08-03T02:22:10;100831.38;;;27.01;39.65
6567;BME280;3317;43.994;22.878;2022-08-03T02:24:38;100835.78;;;26.97;39.62
6567;BME280;3317;43.994;22.878;2022-08-03T02:27:10;100836.91;;;26.96;40.02
6567;BME280;3317;43.994;22.878;2022-08-03T02:29:39;100843.84;;;26.98;39.51
6567;BME280;3317;43.994;22.878;2022-08-03T02:32:10;100849.94;;;26.95;39.61
6567;BME280;3317;43.994;22.878;2022-08-03T02:34:41;100842.97;;;26.93;39.87
6567;BME280;3317;43.994;22.878;2022-08-03T02:37:12;100836.44;;;26.82;40.09
6567;BME280;3317;43.994;22.878;2022-08-03T02:39:40;100847.88;;;26.85;39.87
6567;BME280;3317;43.994;22.878;2022-08-03T02:42:10;100853.97;;;26.82;40.36
6567;BME280;3317;43.994;22.878;2022-08-03T02:44:40;100855.63;;;26.83;40.19
6567;BME280;3317;43.994;22.878;2022-08-03T02:47:12;100847.81;;;26.80;40.63
6567;BME280;3317;43.994;22.878;2022-08-03T02:49:46;100858.34;;;26.78;40.08
6567;BME280;3317;43.994;22.878;2022-08-03T02:52:14;100857.75;;;26.76;40.49
6567;BME280;3317;43.994;22.878;2022-08-03T02:54:43;100867.72;;;26.72;40.87
6567;BME280;3317;43.994;22.878;2022-08-03T02:57:12;100844.78;;;26.60;40.81
6567;BME280;3317;43.994;22.878;2022-08-03T02:59:41;100872.06;;;26.63;40.97
6567;BME280;3317;43.994;22.878;2022-08-03T03:02:10;100871.53;;;26.66;40.92
6567;BME280;3317;43.994;22.878;2022-08-03T03:04:38;100872.91;;;26.63;41.36
6567;BME280;3317;43.994;22.878;2022-08-03T03:07:07;100875.13;;;26.61;41.36
6567;BME280;3317;43.994;22.878;2022-08-03T03:09:35;100876.47;;;26.59;41.36
6567;BME280;3317;43.994;22.878;2022-08-03T03:12:03;100885.31;;;26.55;41.61
6567;BME280;3317;43.994;22.878;2022-08-03T03:14:33;100857.31;;;26.40;41.54
6567;BME280;3317;43.994;22.878;2022-08-03T03:17:00;100883.66;;;26.54;41.87
6567;BME280;3317;43.994;22.878;2022-08-03T03:19:29;100886.91;;;26.51;41.35
6567;BME280;3317;43.994;22.878;2022-08-03T03:21:57;100826.41;;;26.14;41.46
6567;BME280;3317;43.994;22.878;2022-08-03T03:24:27;100883.50;;;26.44;41.67
6567;BME280;3317;43.994;22.878;2022-08-03T03:26:56;100887.97;;;26.45;42.10
6567;BME280;3317;43.994;22.878;2022-08-03T03:29:23;100892.66;;;26.45;41.91
6567;BME280;3317;43.994;22.878;2022-08-03T03:31:50;100886.28;;;26.44;42.07
6567;BME280;3317;43.994;22.878;2022-08-03T03:34:18;100890.66;;;26.40;41.95
6567;BME280;3317;43.994;22.878;2022-08-03T03:36:45;100873.94;;;26.35;42.04
6567;BME280;3317;43.994;22.878;2022-08-03T03:39:12;100897.06;;;26.40;42.23
6567;BME280;3317;43.994;22.878;2022-08-03T03:41:42;100896.22;;;26.40;42.06
6567;BME280;3317;43.994;22.878;2022-08-03T03:44:09;100842.41;;;26.07;42.21
6567;BME280;3317;43.994;22.878;2022-08-03T03:46:37;100906.50;;;26.39;42.51
6567;BME280;3317;43.994;22.878;2022-08-03T03:49:07;100905.06;;;26.37;42.56
6567;BME280;3317;43.994;22.878;2022-08-03T03:51:34;100912.88;;;26.40;42.45
6567;BME280;3317;43.994;22.878;2022-08-03T03:54:03;100912.88;;;26.40;42.44
6567;BME280;3317;43.994;22.878;2022-08-03T03:56:30;100921.53;;;26.43;42.10
6567;BME280;3317;43.994;22.878;2022-08-03T03:58:58;100920.44;;;26.45;42.35
6567;BME280;3317;43.994;22.878;2022-08-03T04:01:25;100921.88;;;26.47;42.41
6567;BME280;3317;43.994;22.878;2022-08-03T04:03:53;100925.00;;;26.51;42.25
6567;BME280;3317;43.994;22.878;2022-08-03T04:06:19;100919.78;;;26.54;42.58
6567;BME280;3317;43.994;22.878;2022-08-03T04:09:04;100917.47;;;26.51;42.46
6567;BME280;3317;43.994;22.878;2022-08-03T04:11:51;100919.59;;;26.61;42.34
6567;BME280;3317;43.994;22.878;2022-08-03T04:14:24;100928.78;;;26.67;42.12
6567;BME280;3317;43.994;22.878;2022-08-03T04:16:55;100940.34;;;26.76;42.55
6567;BME280;3317;43.994;22.878;2022-08-03T04:19:28;100892.75;;;26.50;42.46
6567;BME280;3317;43.994;22.878;2022-08-03T04:21:59;100938.75;;;26.85;42.24
6567;BME280;3317;43.994;22.878;2022-08-03T04:24:32;100938.59;;;26.92;42.19
6567;BME280;3317;43.994;22.878;2022-08-03T04:27:02;100934.72;;;26.93;42.33
6567;BME280;3317;43.994;22.878;2022-08-03T04:29:33;100942.06;;;27.04;42.52
6567;BME280;3317;43.994;22.878;2022-08-03T04:32:01;100944.41;;;27.12;42.42
6567;BME280;3317;43.994;22.878;2022-08-03T04:34:31;100931.34;;;27.13;42.50
6567;BME280;3317;43.994;22.878;2022-08-03T04:37:00;100950.13;;;27.28;42.35
6567;BME280;3317;43.994;22.878;2022-08-03T04:39:30;100946.38;;;27.39;42.67
6567;BME280;3317;43.994;22.878;2022-08-03T04:42:01;100963.09;;;27.45;42.34
6567;BME280;3317;43.994;22.878;2022-08-03T04:44:31;100953.94;;;27.44;42.40
6567;BME280;3317;43.994;22.878;2022-08-03T04:47:01;100962.06;;;27.51;42.26
6567;BME280;3317;43.994;22.878;2022-08-03T04:49:29;100957.69;;;27.55;42.14
6567;BME280;3317;43.994;22.878;2022-08-03T04:51:57;100958.56;;;27.61;42.09
6567;BME280;3317;43.994;22.878;2022-08-03T04:54:24;100959.75;;;27.65;41.94
6567;BME280;3317;43.994;22.878;2022-08-03T04:56:51;100960.59;;;27.71;42.03
6567;BME280;3317;43.994;22.878;2022-08-03T04:59:18;100964.03;;;27.78;42.09
6567;BME280;3317;43.994;22.878;2022-08-03T05:01:47;100963.47;;;27.81;42.22
6567;BME280;3317;43.994;22.878;2022-08-03T05:04:14;100973.25;;;27.83;42.03
6567;BME280;3317;43.994;22.878;2022-08-03T05:06:41;100975.25;;;27.88;41.91
6567;BME280;3317;43.994;22.878;2022-08-03T05:09:08;100977.50;;;27.91;41.96
6567;BME280;3317;43.994;22.878;2022-08-03T05:11:36;100977.81;;;27.95;41.90
6567;BME280;3317;43.994;22.878;2022-08-03T05:14:05;100976.16;;;27.99;42.12
6567;BME280;3317;43.994;22.878;2022-08-03T05:16:32;100981.47;;;28.01;41.78
6567;BME280;3317;43.994;22.878;2022-08-03T05:19:01;100984.31;;;28.06;41.98
6567;BME280;3317;43.994;22.878;2022-08-03T05:21:28;100992.97;;;28.09;41.91
6567;BME280;3317;43.994;22.878;2022-08-03T05:23:54;100990.22;;;28.15;41.87
6567;BME280;3317;43.994;22.878;2022-08-03T05:26:22;100993.91;;;28.20;41.89
6567;BME280;3317;43.994;22.878;2022-08-03T05:28:49;100995.34;;;28.23;42.07
6567;BME280;3317;43.994;22.878;2022-08-03T05:31:17;100984.19;;;28.23;41.92
6567;BME280;3317;43.994;22.878;2022-08-03T05:33:44;100991.47;;;28.29;42.10
6567;BME280;3317;43.994;22.878;2022-08-03T05:36:14;100995.13;;;28.35;42.08
6567;BME280;3317;43.994;22.878;2022-08-03T05:38:43;100983.47;;;28.38;42.22
6567;BME280;3317;43.994;22.878;2022-08-03T05:41:13;100998.56;;;28.47;42.06
6567;BME280;3317;43.994;22.878;2022-08-03T05:43:40;100998.03;;;28.50;42.40
6567;BME280;3317;43.994;22.878;2022-08-03T05:46:07;100994.41;;;28.55;42.34
6567;BME280;3317;43.994;22.878;2022-08-03T05:48:34;101008.16;;;28.62;42.02
6567;BME280;3317;43.994;22.878;2022-08-03T05:51:01;101010.16;;;28.72;41.52
6567;BME280;3317;43.994;22.878;2022-08-03T05:53:33;101006.56;;;28.76;42.19
6567;BME280;3317;43.994;22.878;2022-08-03T05:56:00;101013.91;;;28.88;42.44
6567;BME280;3317;43.994;22.878;2022-08-03T05:58:27;101010.56;;;28.96;42.43
6567;BME280;3317;43.994;22.878;2022-08-03T06:00:54;101016.22;;;29.12;42.52
6567;BME280;3317;43.994;22.878;2022-08-03T06:03:21;101012.09;;;29.25;42.12
6567;BME280;3317;43.994;22.878;2022-08-03T06:05:48;101020.25;;;29.42;41.75
6567;BME280;3317;43.994;22.878;2022-08-03T06:08:15;100987.56;;;29.37;41.84
6567;BME280;3317;43.994;22.878;2022-08-03T06:10:44;101024.81;;;29.74;41.43
6567;BME280;3317;43.994;22.878;2022-08-03T06:13:10;101024.84;;;29.95;41.50
6567;BME280;3317;43.994;22.878;2022-08-03T06:15:37;101020.69;;;30.13;41.06
6567;BME280;3317;43.994;22.878;2022-08-03T06:18:05;101025.97;;;30.35;40.38
6567;BME280;3317;43.994;22.878;2022-08-03T06:20:33;101034.31;;;30.56;40.05
6567;BME280;3317;43.994;22.878;2022-08-03T06:23:01;101037.66;;;30.79;39.60
6567;BME280;3317;43.994;22.878;2022-08-03T06:25:29;101031.16;;;30.99;39.67
6567;BME280;3317;43.994;22.878;2022-08-03T06:27:57;101033.63;;;31.16;39.47
6567;BME280;3317;43.994;22.878;2022-08-03T06:30:25;101036.91;;;31.39;39.03
6567;BME280;3317;43.994;22.878;2022-08-03T06:32:52;101028.94;;;31.61;38.67
6567;BME280;3317;43.994;22.878;2022-08-03T06:35:19;101036.66;;;31.85;38.17
6567;BME280;3317;43.994;22.878;2022-08-03T06:37:49;101025.34;;;31.96;37.40
6567;BME280;3317;43.994;22.878;2022-08-03T06:40:17;101038.06;;;32.17;37.05
6567;BME280;3317;43.994;22.878;2022-08-03T06:42:45;101030.72;;;32.27;36.21
6567;BME280;3317;43.994;22.878;2022-08-03T06:45:13;101026.19;;;32.31;36.67
6567;BME280;3317;43.994;22.878;2022-08-03T06:47:41;101033.59;;;32.51;36.53
6567;BME280;3317;43.994;22.878;2022-08-03T06:50:08;101034.50;;;32.71;36.71
6567;BME280;3317;43.994;22.878;2022-08-03T06:52:36;101032.06;;;32.89;35.92
6567;BME280;3317;43.994;22.878;2022-08-03T06:55:04;101029.34;;;33.08;35.90
6567;BME280;3317;43.994;22.878;2022-08-03T06:57:31;101023.50;;;33.23;35.61
6567;BME280;3317;43.994;22.878;2022-08-03T06:59:58;101034.25;;;33.40;36.06
6567;BME280;3317;43.994;22.878;2022-08-03T07:02:27;101030.25;;;33.47;35.45
6567;BME280;3317;43.994;22.878;2022-08-03T07:04:55;101036.78;;;33.61;35.39
6567;BME280;3317;43.994;22.878;2022-08-03T07:07:23;101028.88;;;33.82;35.41
6567;BME280;3317;43.994;22.878;2022-08-03T07:09:50;101033.72;;;33.96;34.62
6567;BME280;3317;43.994;22.878;2022-08-03T07:12:17;101030.50;;;34.22;34.61
6567;BME280;3317;43.994;22.878;2022-08-03T07:14:45;101029.50;;;34.32;33.93
6567;BME280;3317;43.994;22.878;2022-08-03T07:17:11;101041.13;;;34.25;33.70
6567;BME280;3317;43.994;22.878;2022-08-03T07:19:43;101026.72;;;33.93;33.39
6567;BME280;3317;43.994;22.878;2022-08-03T07:22:10;100918.09;;;32.93;33.71
6567;BME280;3317;43.994;22.878;2022-08-03T07:24:37;101027.13;;;33.48;34.09
6567;BME280;3317;43.994;22.878;2022-08-03T07:27:06;101030.41;;;33.55;34.20
6567;BME280;3317;43.994;22.878;2022-08-03T07:29:33;101036.84;;;33.75;34.65
6567;BME280;3317;43.994;22.878;2022-08-03T07:32:01;100991.28;;;33.59;34.44
6567;BME280;3317;43.994;22.878;2022-08-03T07:34:28;101031.81;;;34.10;34.66
6567;BME280;3317;43.994;22.878;2022-08-03T07:36:58;101019.50;;;34.25;33.58
6567;BME280;3317;43.994;22.878;2022-08-03T07:39:25;101039.47;;;34.71;33.43
6567;BME280;3317;43.994;22.878;2022-08-03T07:41:53;101029.38;;;34.98;32.62
6567;BME280;3317;43.994;22.878;2022-08-03T07:44:20;101037.06;;;35.34;32.47
6567;BME280;3317;43.994;22.878;2022-08-03T07:46:47;101038.63;;;35.55;31.60
6567;BME280;3317;43.994;22.878;2022-08-03T07:49:15;101032.25;;;35.49;31.06
6567;BME280;3317;43.994;22.878;2022-08-03T07:51:42;101038.75;;;35.21;31.23
6567;BME280;3317;43.994;22.878;2022-08-03T07:54:11;101036.59;;;35.04;31.48
6567;BME280;3317;43.994;22.878;2022-08-03T07:56:39;101036.16;;;34.97;31.31
6567;BME280;3317;43.994;22.878;2022-08-03T07:59:06;101045.88;;;35.05;31.51
6567;BME280;3317;43.994;22.878;2022-08-03T08:01:33;101043.66;;;34.88;31.29
6567;BME280;3317;43.994;22.878;2022-08-03T08:04:02;101045.00;;;34.62;31.64
6567;BME280;3317;43.994;22.878;2022-08-03T08:06:30;101040.00;;;34.73;31.84
6567;BME280;3317;43.994;22.878;2022-08-03T08:08:58;101039.38;;;34.90;31.67
6567;BME280;3317;43.994;22.878;2022-08-03T08:11:28;101025.28;;;34.76;31.20
6567;BME280;3317;43.994;22.878;2022-08-03T08:13:55;101049.81;;;34.90;31.66
6567;BME280;3317;43.994;22.878;2022-08-03T08:16:22;101046.38;;;35.07;31.28
6567;BME280;3317;43.994;22.878;2022-08-03T08:18:49;101051.47;;;35.33;31.49
6567;BME280;3317;43.994;22.878;2022-08-03T08:21:16;101043.81;;;35.61;31.23
6567;BME280;3317;43.994;22.878;2022-08-03T08:23:43;101022.25;;;35.79;30.68
6567;BME280;3317;43.994;22.878;2022-08-03T08:26:11;101052.63;;;36.19;30.09
6567;BME280;3317;43.994;22.878;2022-08-03T08:28:39;101049.59;;;36.16;29.65
6567;BME280;3317;43.994;22.878;2022-08-03T08:31:06;101019.75;;;36.01;29.71
6567;BME280;3317;43.994;22.878;2022-08-03T08:33:35;101040.22;;;36.06;29.71
6567;BME280;3317;43.994;22.878;2022-08-03T08:36:03;101049.03;;;36.36;29.67
6567;BME280;3317;43.994;22.878;2022-08-03T08:38:30;101039.28;;;36.66;30.06
6567;BME280;3317;43.994;22.878;2022-08-03T08:41:00;101039.25;;;36.97;29.19
6567;BME280;3317;43.994;22.878;2022-08-03T08:43:27;101037.88;;;36.95;28.73
6567;BME280;3317;43.994;22.878;2022-08-03T08:45:58;101043.28;;;37.05;29.10
6567;BME280;3317;43.994;22.878;2022-08-03T08:48:25;101035.31;;;37.16;28.87
6567;BME280;3317;43.994;22.878;2022-08-03T08:50:55;101032.75;;;36.97;28.59
6567;BME280;3317;43.994;22.878;2022-08-03T08:53:25;101034.84;;;37.23;29.26
6567;BME280;3317;43.994;22.878;2022-08-03T08:55:54;101006.75;;;37.35;28.54
6567;BME280;3317;43.994;22.878;2022-08-03T08:58:25;101022.59;;;37.54;27.78
6567;BME280;3317;43.994;22.878;2022-08-03T09:00:54;101024.59;;;37.62;27.28
6567;BME280;3317;43.994;22.878;2022-08-03T09:03:22;101018.94;;;37.53;27.95
6567;BME280;3317;43.994;22.878;2022-08-03T09:05:49;101015.44;;;37.65;28.10
6567;BME280;3317;43.994;22.878;2022-08-03T09:08:17;101027.03;;;37.37;27.60
6567;BME280;3317;43.994;22.878;2022-08-03T09:10:44;101032.75;;;36.97;27.79
6567;BME280;3317;43.994;22.878;2022-08-03T09:13:13;101019.75;;;36.78;28.30
6567;BME280;3317;43.994;22.878;2022-08-03T09:15:40;101017.75;;;36.87;28.54
6567;BME280;3317;43.994;22.878;2022-08-03T09:18:09;101020.00;;;37.08;27.98
6567;BME280;3317;43.994;22.878;2022-08-03T09:20:39;101006.56;;;37.14;28.20
6567;BME280;3317;43.994;22.878;2022-08-03T09:23:07;101010.06;;;37.11;27.32
6567;BME280;3317;43.994;22.878;2022-08-03T09:25:36;101017.22;;;37.26;27.66
6567;BME280;3317;43.994;22.878;2022-08-03T09:28:06;101009.28;;;37.45;26.93
6567;BME280;3317;43.994;22.878;2022-08-03T09:30:35;101005.09;;;37.43;27.03
6567;BME280;3317;43.994;22.878;2022-08-03T09:33:05;101023.03;;;37.29;27.40
6567;BME280;3317;43.994;22.878;2022-08-03T09:35:33;100996.94;;;37.41;27.97
6567;BME280;3317;43.994;22.878;2022-08-03T09:38:15;101006.81;;;37.70;27.15
6567;BME280;3317;43.994;22.878;2022-08-03T09:40:45;100984.69;;;37.64;26.93
6567;BME280;3317;43.994;22.878;2022-08-03T09:43:12;100992.16;;;37.86;26.85
6567;BME280;3317;43.994;22.878;2022-08-03T09:45:39;100993.63;;;37.92;25.84
6567;BME280;3317;43.994;22.878;2022-08-03T09:48:23;100996.13;;;38.02;26.49
6567;BME280;3317;43.994;22.878;2022-08-03T09:50:51;100983.97;;;38.11;26.45
6567;BME280;3317;43.994;22.878;2022-08-03T09:53:21;100993.56;;;38.27;25.97
6567;BME280;3317;43.994;22.878;2022-08-03T09:55:52;100982.94;;;38.24;25.64
6567;BME280;3317;43.994;22.878;2022-08-03T09:58:20;100981.69;;;38.43;25.59
6567;BME280;3317;43.994;22.878;2022-08-03T10:00:56;100986.25;;;38.74;25.97
6567;BME280;3317;43.994;22.878;2022-08-03T10:03:25;100983.56;;;38.78;25.13
6567;BME280;3317;43.994;22.878;2022-08-03T10:05:53;100974.28;;;38.68;24.92
6567;BME280;3317;43.994;22.878;2022-08-03T10:08:22;100943.50;;;38.67;26.11
6567;BME280;3317;43.994;22.878;2022-08-03T10:10:50;100971.56;;;39.11;25.20
6567;BME280;3317;43.994;22.878;2022-08-03T10:13:20;100963.91;;;39.33;24.78
6567;BME280;3317;43.994;22.878;2022-08-03T10:15:48;100909.56;;;39.09;24.10
6567;BME280;3317;43.994;22.878;2022-08-03T10:18:17;100959.28;;;39.28;24.16
6567;BME280;3317;43.994;22.878;2022-08-03T10:20:49;100952.56;;;39.54;24.89
6567;BME280;3317;43.994;22.878;2022-08-03T10:23:20;100962.13;;;39.83;23.82
6567;BME280;3317;43.994;22.878;2022-08-03T10:25:52;100948.03;;;39.74;23.60
6567;BME280;3317;43.994;22.878;2022-08-03T10:28:22;100954.78;;;39.82;23.45
6567;BME280;3317;43.994;22.878;2022-08-03T10:30:52;100944.88;;;39.54;22.36
6567;BME280;3317;43.994;22.878;2022-08-03T10:33:21;100954.75;;;39.69;22.19
6567;BME280;3317;43.994;22.878;2022-08-03T10:35:54;100951.47;;;39.80;23.09
6567;BME280;3317;43.994;22.878;2022-08-03T10:38:28;100951.69;;;39.96;22.69
6567;BME280;3317;43.994;22.878;2022-08-03T10:41:00;100950.47;;;40.31;22.43
6567;BME280;3317;43.994;22.878;2022-08-03T10:43:34;100951.75;;;40.46;21.66
6567;BME280;3317;43.994;22.878;2022-08-03T10:46:05;100947.88;;;40.75;21.68
6567;BME280;3317;43.994;22.878;2022-08-03T10:48:38;100952.81;;;40.66;21.56
6567;BME280;3317;43.994;22.878;2022-08-03T10:51:06;100947.84;;;40.50;22.20
6567;BME280;3317;43.994;22.878;2022-08-03T10:53:35;100950.63;;;40.13;22.32
6567;BME280;3317;43.994;22.878;2022-08-03T10:56:04;100940.94;;;40.14;22.64
6567;BME280;3317;43.994;22.878;2022-08-03T10:58:50;100927.59;;;40.27;22.58
6567;BME280;3317;43.994;22.878;2022-08-03T11:01:18;100943.06;;;40.05;21.47
6567;BME280;3317;43.994;22.878;2022-08-03T11:04:13;100926.34;;;39.91;22.20
6567;BME280;3317;43.994;22.878;2022-08-03T11:06:40;100931.50;;;39.76;22.24
6567;BME280;3317;43.994;22.878;2022-08-03T11:09:15;100920.72;;;39.69;22.53
6567;BME280;3317;43.994;22.878;2022-08-03T11:11:45;100919.53;;;39.70;22.92
6567;BME280;3317;43.994;22.878;2022-08-03T11:14:45;100913.91;;;39.83;22.78
6567;BME280;3317;43.994;22.878;2022-08-03T11:17:13;100910.75;;;39.84;21.58
6567;BME280;3317;43.994;22.878;2022-08-03T11:19:43;100909.22;;;39.87;22.09
6567;BME280;3317;43.994;22.878;2022-08-03T11:22:10;100908.56;;;39.81;21.81
6567;BME280;3317;43.994;22.878;2022-08-03T11:24:56;100914.69;;;40.05;22.41
6567;BME280;3317;43.994;22.878;2022-08-03T11:27:26;100905.50;;;40.20;22.14
6567;BME280;3317;43.994;22.878;2022-08-03T11:29:56;100899.97;;;40.36;21.85
6567;BME280;3317;43.994;22.878;2022-08-03T11:32:56;100892.72;;;40.39;21.16
6567;BME280;3317;43.994;22.878;2022-08-03T11:35:27;100883.50;;;40.05;21.40
6567;BME280;3317;43.994;22.878;2022-08-03T11:38:06;100885.06;;;39.81;21.62
6567;BME280;3317;43.994;22.878;2022-08-03T11:40:53;100884.41;;;39.96;22.04
6567;BME280;3317;43.994;22.878;2022-08-03T11:43:48;100884.19;;;40.26;21.80
6567;BME280;3317;43.994;22.878;2022-08-03T11:46:17;100872.06;;;40.38;21.29
6567;BME280;3317;43.994;22.878;2022-08-03T11:48:47;100860.44;;;40.56;20.97
6567;BME280;3317;43.994;22.878;2022-08-03T11:51:19;100868.47;;;40.79;21.09
6567;BME280;3317;43.994;22.878;2022-08-03T11:53:50;100866.22;;;40.85;21.05
6567;BME280;3317;43.994;22.878;2022-08-03T11:56:18;100869.63;;;40.90;20.64
6567;BME280;3317;43.994;22.878;2022-08-03T11:58:49;100848.25;;;40.80;20.36
6567;BME280;3317;43.994;22.878;2022-08-03T12:01:19;100846.31;;;40.85;20.50
6567;BME280;3317;43.994;22.878;2022-08-03T12:03:46;100834.91;;;40.44;20.85
6567;BME280;3317;43.994;22.878;2022-08-03T12:06:15;100844.84;;;40.50;21.72
6567;BME280;3317;43.994;22.878;2022-08-03T12:08:43;100843.06;;;40.58;21.23
6567;BME280;3317;43.994;22.878;2022-08-03T12:11:13;100848.94;;;40.65;21.01
6567;BME280;3317;43.994;22.878;2022-08-03T12:13:42;100845.75;;;40.66;21.07
6567;BME280;3317;43.994;22.878;2022-08-03T12:16:16;100843.25;;;40.77;21.13
6567;BME280;3317;43.994;22.878;2022-08-03T12:18:43;100833.53;;;40.78;20.32
6567;BME280;3317;43.994;22.878;2022-08-03T12:21:11;100835.47;;;40.74;20.33
6567;BME280;3317;43.994;22.878;2022-08-03T12:23:38;100824.53;;;40.89;20.42
6567;BME280;3317;43.994;22.878;2022-08-03T12:26:07;100823.66;;;41.01;20.06
6567;BME280;3317;43.994;22.878;2022-08-03T12:28:35;100822.03;;;41.16;20.14
6567;BME280;3317;43.994;22.878;2022-08-03T12:31:05;100822.41;;;41.27;20.25
6567;BME280;3317;43.994;22.878;2022-08-03T12:33:55;100821.94;;;41.24;19.83
6567;BME280;3317;43.994;22.878;2022-08-03T12:36:23;100824.25;;;41.06;20.18
6567;BME280;3317;43.994;22.878;2022-08-03T12:38:54;100824.28;;;40.94;19.99
6567;BME280;3317;43.994;22.878;2022-08-03T12:41:27;100820.41;;;40.74;20.33
6567;BME280;3317;43.994;22.878;2022-08-03T12:43:54;100823.38;;;40.65;20.58
6567;BME280;3317;43.994;22.878;2022-08-03T12:46:22;100816.91;;;40.52;20.64
6567;BME280;3317;43.994;22.878;2022-08-03T12:49:05;100823.53;;;40.19;20.47
6567;BME280;3317;43.994;22.878;2022-08-03T12:51:34;100815.00;;;39.81;21.15
6567;BME280;3317;43.994;22.878;2022-08-03T12:54:03;100813.44;;;39.71;21.49
6567;BME280;3317;43.994;22.878;2022-08-03T12:56:31;100812.03;;;39.65;21.72
6567;BME280;3317;43.994;22.878;2022-08-03T12:58:58;100810.00;;;39.53;21.70
6567;BME280;3317;43.994;22.878;2022-08-03T13:05:08;100795.53;;;39.00;22.16
6567;BME280;3317;43.994;22.878;2022-08-03T13:07:39;100799.09;;;38.88;22.78
6567;BME280;3317;43.994;22.878;2022-08-03T13:10:08;100793.44;;;38.88;22.35
6567;BME280;3317;43.994;22.878;2022-08-03T13:12:45;100802.75;;;38.88;22.26
6567;BME280;3317;43.994;22.878;2022-08-03T13:15:13;100796.13;;;38.84;21.42
6567;BME280;3317;43.994;22.878;2022-08-03T13:17:40;100798.91;;;38.72;21.33
6567;BME280;3317;43.994;22.878;2022-08-03T13:20:10;100796.00;;;38.59;21.82